Skip Navigation Links Skip Navigation Links

Current Weather

De Kalb Taylor Muni, De Kalb, Ill.

For information only: do not use for flight planning or navigation.
Latest weather
Observation time Sunday, October 13, 2019 6:15 PM CDT
Local time Sunday, October 13, 2019 6:37 PM CDT
Flight conditions Visual Meteorological Conditions
Winds
Wind direction West-Northwest (290°)
Wind speed 12 mph
Visibility 10 mi.
Sky condition
Ceiling unlimited
Cloud layer scattered clouds 7,000 ft.
Temperature 45°F
Dewpoint 32°F
Altimeter 29.90 in.Hg
Derived measurements
Relative humidity 61%
Wind chill 39°F
Density altitude 70 ft.
Remarks
Fully automated report.
Automated weather observing station with precipitation discriminator.
METAR KDKB 132315Z AUTO 29010KT 10SM SCT070 07/00 A2990 RMK AO2 T00700000

Settings

Location code

InnerDrive.Weather 4.0.6770.0 Release CLR 4.0.30319.42000
Copyright ©2018 Inner Drive Technology. All rights reserved. Portions Copyright ©1986-2018 David Braverman.

Find weather

Site navigation


Skip Navigation Links

Place info

Page info

PayPal - The safer, easier way to pay online!

Return home.

Copyright ©2019 Inner Drive Technology. Purveyors of fine, hand-crafted computer software. Page printed 2019-10-13T23:37:16 UTC.